sensor_id;sensor_type;location;lat;lon;timestamp;P1;durP1;ratioP1;P2;durP2;ratioP2
31308;SDS011;17936;52.446;10.840;2022-08-20T00:00:25;18.13;;;12.32;;
31308;SDS011;17936;52.446;10.840;2022-08-20T00:02:57;16.13;;;11.85;;
31308;SDS011;17936;52.446;10.840;2022-08-20T00:05:27;16.92;;;12.20;;
31308;SDS011;17936;52.446;10.840;2022-08-20T00:07:57;17.95;;;12.57;;
31308;SDS011;17936;52.446;10.840;2022-08-20T00:10:24;15.63;;;11.18;;
31308;SDS011;17936;52.446;10.840;2022-08-20T00:12:50;17.88;;;12.20;;
31308;SDS011;17936;52.446;10.840;2022-08-20T00:15:17;17.55;;;12.23;;
31308;SDS011;17936;52.446;10.840;2022-08-20T00:17:50;16.85;;;11.93;;
31308;SDS011;17936;52.446;10.840;2022-08-20T00:20:16;16.45;;;12.25;;
31308;SDS011;17936;52.446;10.840;2022-08-20T00:22:44;15.63;;;12.25;;
31308;SDS011;17936;52.446;10.840;2022-08-20T00:25:11;19.60;;;12.82;;
31308;SDS011;17936;52.446;10.840;2022-08-20T00:27:37;21.08;;;12.23;;
31308;SDS011;17936;52.446;10.840;2022-08-20T00:30:04;14.20;;;11.38;;
31308;SDS011;17936;52.446;10.840;2022-08-20T00:32:31;15.10;;;11.05;;
31308;SDS011;17936;52.446;10.840;2022-08-20T00:35:06;15.95;;;11.65;;
31308;SDS011;17936;52.446;10.840;2022-08-20T00:37:32;12.77;;;10.55;;
31308;SDS011;17936;52.446;10.840;2022-08-20T00:39:57;17.70;;;11.05;;
31308;SDS011;17936;52.446;10.840;2022-08-20T00:42:23;18.70;;;11.50;;
31308;SDS011;17936;52.446;10.840;2022-08-20T00:44:49;15.73;;;10.93;;
31308;SDS011;17936;52.446;10.840;2022-08-20T00:47:14;16.05;;;10.25;;
31308;SDS011;17936;52.446;10.840;2022-08-20T00:49:40;15.40;;;11.57;;
31308;SDS011;17936;52.446;10.840;2022-08-20T00:52:11;14.13;;;10.95;;
31308;SDS011;17936;52.446;10.840;2022-08-20T00:57:34;13.70;;;10.50;;
31308;SDS011;17936;52.446;10.840;2022-08-20T01:00:06;16.42;;;10.57;;
31308;SDS011;17936;52.446;10.840;2022-08-20T01:02:35;14.15;;;10.68;;
31308;SDS011;17936;52.446;10.840;2022-08-20T01:05:02;12.70;;;10.02;;
31308;SDS011;17936;52.446;10.840;2022-08-20T01:07:28;13.93;;;9.85;;
31308;SDS011;17936;52.446;10.840;2022-08-20T01:10:03;12.57;;;10.07;;
31308;SDS011;17936;52.446;10.840;2022-08-20T01:12:33;14.98;;;10.55;;
31308;SDS011;17936;52.446;10.840;2022-08-20T01:15:01;15.52;;;9.88;;
31308;SDS011;17936;52.446;10.840;2022-08-20T01:17:29;17.17;;;11.13;;
31308;SDS011;17936;52.446;10.840;2022-08-20T01:20:00;14.10;;;10.90;;
31308;SDS011;17936;52.446;10.840;2022-08-20T01:22:49;15.98;;;10.55;;
31308;SDS011;17936;52.446;10.840;2022-08-20T01:25:46;14.25;;;9.38;;
31308;SDS011;17936;52.446;10.840;2022-08-20T01:28:38;13.13;;;10.73;;
31308;SDS011;17936;52.446;10.840;2022-08-20T01:31:18;13.18;;;10.55;;
31308;SDS011;17936;52.446;10.840;2022-08-20T01:33:48;18.20;;;10.73;;
31308;SDS011;17936;52.446;10.840;2022-08-20T01:36:15;17.15;;;11.50;;
31308;SDS011;17936;52.446;10.840;2022-08-20T01:38:42;16.77;;;11.13;;
31308;SDS011;17936;52.446;10.840;2022-08-20T01:41:14;17.13;;;10.80;;
31308;SDS011;17936;52.446;10.840;2022-08-20T01:43:50;15.77;;;11.30;;
31308;SDS011;17936;52.446;10.840;2022-08-20T01:46:20;14.40;;;10.60;;
31308;SDS011;17936;52.446;10.840;2022-08-20T01:48:51;15.82;;;10.77;;
31308;SDS011;17936;52.446;10.840;2022-08-20T01:51:20;14.18;;;10.43;;
31308;SDS011;17936;52.446;10.840;2022-08-20T01:53:51;16.30;;;11.25;;
31308;SDS011;17936;52.446;10.840;2022-08-20T01:56:20;13.23;;;10.32;;
31308;SDS011;17936;52.446;10.840;2022-08-20T01:58:52;15.05;;;11.52;;
31308;SDS011;17936;52.446;10.840;2022-08-20T02:01:25;14.10;;;10.50;;
31308;SDS011;17936;52.446;10.840;2022-08-20T02:03:59;16.27;;;10.73;;
31308;SDS011;17936;52.446;10.840;2022-08-20T02:06:27;15.35;;;11.05;;
31308;SDS011;17936;52.446;10.840;2022-08-20T02:08:55;16.30;;;11.50;;
31308;SDS011;17936;52.446;10.840;2022-08-20T02:11:24;12.30;;;10.13;;
31308;SDS011;17936;52.446;10.840;2022-08-20T02:13:50;12.20;;;9.52;;
31308;SDS011;17936;52.446;10.840;2022-08-20T02:16:19;13.55;;;10.15;;
31308;SDS011;17936;52.446;10.840;2022-08-20T02:18:46;16.77;;;10.48;;
31308;SDS011;17936;52.446;10.840;2022-08-20T02:21:13;12.85;;;10.98;;
31308;SDS011;17936;52.446;10.840;2022-08-20T02:23:40;15.63;;;11.50;;
31308;SDS011;17936;52.446;10.840;2022-08-20T02:26:05;21.20;;;11.13;;
31308;SDS011;17936;52.446;10.840;2022-08-20T02:28:31;13.52;;;10.48;;
31308;SDS011;17936;52.446;10.840;2022-08-20T02:30:57;15.40;;;11.02;;
31308;SDS011;17936;52.446;10.840;2022-08-20T02:33:24;16.25;;;10.88;;
31308;SDS011;17936;52.446;10.840;2022-08-20T02:35:50;17.67;;;11.50;;
31308;SDS011;17936;52.446;10.840;2022-08-20T02:38:17;13.60;;;10.98;;
31308;SDS011;17936;52.446;10.840;2022-08-20T02:40:43;14.30;;;10.48;;
31308;SDS011;17936;52.446;10.840;2022-08-20T02:43:10;15.02;;;11.27;;
31308;SDS011;17936;52.446;10.840;2022-08-20T02:45:36;13.63;;;10.45;;
31308;SDS011;17936;52.446;10.840;2022-08-20T02:48:07;16.88;;;12.18;;
31308;SDS011;17936;52.446;10.840;2022-08-20T02:50:35;17.40;;;12.32;;
31308;SDS011;17936;52.446;10.840;2022-08-20T02:53:00;14.48;;;11.43;;
31308;SDS011;17936;52.446;10.840;2022-08-20T02:55:26;15.85;;;12.20;;
31308;SDS011;17936;52.446;10.840;2022-08-20T02:57:53;19.27;;;11.30;;
31308;SDS011;17936;52.446;10.840;2022-08-20T03:00:20;18.80;;;12.20;;
31308;SDS011;17936;52.446;10.840;2022-08-20T03:02:46;19.45;;;13.00;;
31308;SDS011;17936;52.446;10.840;2022-08-20T03:05:12;13.82;;;11.13;;
31308;SDS011;17936;52.446;10.840;2022-08-20T03:07:39;16.67;;;12.35;;
31308;SDS011;17936;52.446;10.840;2022-08-20T03:10:06;15.90;;;12.55;;
31308;SDS011;17936;52.446;10.840;2022-08-20T03:12:33;17.67;;;12.60;;
31308;SDS011;17936;52.446;10.840;2022-08-20T03:14:58;17.08;;;12.38;;
31308;SDS011;17936;52.446;10.840;2022-08-20T03:17:23;17.83;;;13.20;;
31308;SDS011;17936;52.446;10.840;2022-08-20T03:19:49;17.50;;;12.85;;
31308;SDS011;17936;52.446;10.840;2022-08-20T03:22:15;17.92;;;12.90;;
31308;SDS011;17936;52.446;10.840;2022-08-20T03:24:40;16.35;;;11.90;;
31308;SDS011;17936;52.446;10.840;2022-08-20T03:27:06;15.55;;;11.65;;
31308;SDS011;17936;52.446;10.840;2022-08-20T03:29:31;15.50;;;11.95;;
31308;SDS011;17936;52.446;10.840;2022-08-20T03:31:57;16.88;;;11.82;;
31308;SDS011;17936;52.446;10.840;2022-08-20T03:34:23;19.48;;;12.57;;
31308;SDS011;17936;52.446;10.840;2022-08-20T03:36:49;19.73;;;12.23;;
31308;SDS011;17936;52.446;10.840;2022-08-20T03:39:14;16.50;;;12.88;;
31308;SDS011;17936;52.446;10.840;2022-08-20T03:41:40;18.33;;;12.43;;
31308;SDS011;17936;52.446;10.840;2022-08-20T03:44:05;22.75;;;12.80;;
31308;SDS011;17936;52.446;10.840;2022-08-20T03:46:31;17.77;;;12.15;;
31308;SDS011;17936;52.446;10.840;2022-08-20T03:48:57;15.75;;;12.13;;
31308;SDS011;17936;52.446;10.840;2022-08-20T03:51:23;18.27;;;12.50;;
31308;SDS011;17936;52.446;10.840;2022-08-20T03:53:49;17.67;;;12.02;;
31308;SDS011;17936;52.446;10.840;2022-08-20T03:56:14;15.80;;;11.50;;
31308;SDS011;17936;52.446;10.840;2022-08-20T03:58:41;16.25;;;11.80;;
31308;SDS011;17936;52.446;10.840;2022-08-20T04:01:06;22.92;;;12.95;;
31308;SDS011;17936;52.446;10.840;2022-08-20T04:03:32;16.02;;;11.93;;
31308;SDS011;17936;52.446;10.840;2022-08-20T04:05:58;16.02;;;12.23;;
31308;SDS011;17936;52.446;10.840;2022-08-20T04:08:24;15.20;;;11.25;;
31308;SDS011;17936;52.446;10.840;2022-08-20T04:10:52;17.30;;;12.07;;
31308;SDS011;17936;52.446;10.840;2022-08-20T04:13:21;14.63;;;12.00;;
31308;SDS011;17936;52.446;10.840;2022-08-20T04:15:47;14.02;;;11.48;;
31308;SDS011;17936;52.446;10.840;2022-08-20T04:18:14;20.77;;;12.63;;
31308;SDS011;17936;52.446;10.840;2022-08-20T04:20:45;15.80;;;12.13;;
31308;SDS011;17936;52.446;10.840;2022-08-20T04:23:11;15.10;;;11.68;;
31308;SDS011;17936;52.446;10.840;2022-08-20T04:25:39;14.32;;;11.77;;
31308;SDS011;17936;52.446;10.840;2022-08-20T04:28:06;14.07;;;11.32;;
31308;SDS011;17936;52.446;10.840;2022-08-20T04:30:34;15.75;;;12.32;;
31308;SDS011;17936;52.446;10.840;2022-08-20T04:33:00;18.25;;;12.18;;
31308;SDS011;17936;52.446;10.840;2022-08-20T04:35:26;15.15;;;11.40;;
31308;SDS011;17936;52.446;10.840;2022-08-20T04:37:56;15.07;;;12.15;;
31308;SDS011;17936;52.446;10.840;2022-08-20T04:40:23;18.67;;;12.93;;
31308;SDS011;17936;52.446;10.840;2022-08-20T04:43:08;17.02;;;12.73;;
31308;SDS011;17936;52.446;10.840;2022-08-20T04:45:33;17.80;;;12.38;;
31308;SDS011;17936;52.446;10.840;2022-08-20T04:48:03;17.23;;;13.10;;
31308;SDS011;17936;52.446;10.840;2022-08-20T04:50:30;19.65;;;13.20;;
31308;SDS011;17936;52.446;10.840;2022-08-20T04:53:00;18.55;;;13.35;;
31308;SDS011;17936;52.446;10.840;2022-08-20T04:55:27;16.77;;;13.38;;
31308;SDS011;17936;52.446;10.840;2022-08-20T04:57:53;20.42;;;13.07;;
31308;SDS011;17936;52.446;10.840;2022-08-20T05:00:20;19.55;;;13.65;;
31308;SDS011;17936;52.446;10.840;2022-08-20T05:02:45;18.42;;;13.70;;
31308;SDS011;17936;52.446;10.840;2022-08-20T05:05:11;23.05;;;14.02;;
31308;SDS011;17936;52.446;10.840;2022-08-20T05:07:41;20.73;;;14.25;;
31308;SDS011;17936;52.446;10.840;2022-08-20T05:10:10;19.38;;;12.80;;
31308;SDS011;17936;52.446;10.840;2022-08-20T05:12:38;20.67;;;13.43;;
31308;SDS011;17936;52.446;10.840;2022-08-20T05:15:05;17.40;;;13.55;;
31308;SDS011;17936;52.446;10.840;2022-08-20T05:17:31;19.85;;;13.98;;
31308;SDS011;17936;52.446;10.840;2022-08-20T05:19:56;18.40;;;13.82;;
31308;SDS011;17936;52.446;10.840;2022-08-20T05:22:23;18.70;;;14.30;;
31308;SDS011;17936;52.446;10.840;2022-08-20T05:24:49;19.83;;;14.38;;
31308;SDS011;17936;52.446;10.840;2022-08-20T05:27:17;17.38;;;13.98;;
31308;SDS011;17936;52.446;10.840;2022-08-20T05:29:43;19.48;;;13.75;;
31308;SDS011;17936;52.446;10.840;2022-08-20T05:32:09;18.60;;;13.90;;
31308;SDS011;17936;52.446;10.840;2022-08-20T05:34:36;18.17;;;12.95;;
31308;SDS011;17936;52.446;10.840;2022-08-20T05:37:02;18.80;;;13.35;;
31308;SDS011;17936;52.446;10.840;2022-08-20T05:39:28;21.27;;;13.85;;
31308;SDS011;17936;52.446;10.840;2022-08-20T05:41:54;19.00;;;13.68;;
31308;SDS011;17936;52.446;10.840;2022-08-20T05:44:20;18.67;;;14.00;;
31308;SDS011;17936;52.446;10.840;2022-08-20T05:46:46;19.27;;;13.60;;
31308;SDS011;17936;52.446;10.840;2022-08-20T05:49:13;23.33;;;13.05;;
31308;SDS011;17936;52.446;10.840;2022-08-20T05:51:42;18.85;;;13.40;;
31308;SDS011;17936;52.446;10.840;2022-08-20T05:54:08;17.60;;;11.32;;
31308;SDS011;17936;52.446;10.840;2022-08-20T05:56:34;15.43;;;12.13;;
31308;SDS011;17936;52.446;10.840;2022-08-20T05:59:00;16.90;;;11.43;;
31308;SDS011;17936;52.446;10.840;2022-08-20T06:01:30;14.18;;;10.43;;
31308;SDS011;17936;52.446;10.840;2022-08-20T06:03:57;14.38;;;10.57;;
31308;SDS011;17936;52.446;10.840;2022-08-20T06:06:41;16.63;;;10.25;;
31308;SDS011;17936;52.446;10.840;2022-08-20T06:09:07;13.20;;;9.77;;
31308;SDS011;17936;52.446;10.840;2022-08-20T06:11:33;16.60;;;8.88;;
31308;SDS011;17936;52.446;10.840;2022-08-20T06:13:58;12.25;;;8.00;;
31308;SDS011;17936;52.446;10.840;2022-08-20T06:16:24;13.05;;;8.20;;
31308;SDS011;17936;52.446;10.840;2022-08-20T06:18:50;11.95;;;8.13;;
31308;SDS011;17936;52.446;10.840;2022-08-20T06:21:16;9.57;;;7.28;;
31308;SDS011;17936;52.446;10.840;2022-08-20T06:23:41;10.02;;;7.55;;
31308;SDS011;17936;52.446;10.840;2022-08-20T06:26:07;8.43;;;6.68;;
31308;SDS011;17936;52.446;10.840;2022-08-20T06:28:33;8.25;;;6.20;;
31308;SDS011;17936;52.446;10.840;2022-08-20T06:30:59;11.32;;;6.95;;
31308;SDS011;17936;52.446;10.840;2022-08-20T06:33:25;10.80;;;6.90;;
31308;SDS011;17936;52.446;10.840;2022-08-20T06:35:50;11.10;;;6.85;;
31308;SDS011;17936;52.446;10.840;2022-08-20T06:38:16;8.77;;;6.60;;
31308;SDS011;17936;52.446;10.840;2022-08-20T06:40:41;10.00;;;6.72;;
31308;SDS011;17936;52.446;10.840;2022-08-20T06:43:07;8.48;;;6.75;;
31308;SDS011;17936;52.446;10.840;2022-08-20T06:45:36;11.00;;;6.45;;
31308;SDS011;17936;52.446;10.840;2022-08-20T06:48:11;8.75;;;6.43;;
31308;SDS011;17936;52.446;10.840;2022-08-20T06:50:39;7.70;;;5.78;;
31308;SDS011;17936;52.446;10.840;2022-08-20T06:53:07;8.13;;;6.05;;
31308;SDS011;17936;52.446;10.840;2022-08-20T06:55:35;8.07;;;6.35;;
31308;SDS011;17936;52.446;10.840;2022-08-20T06:58:04;10.30;;;5.88;;
31308;SDS011;17936;52.446;10.840;2022-08-20T07:00:31;9.13;;;5.72;;
31308;SDS011;17936;52.446;10.840;2022-08-20T07:02:58;9.38;;;5.75;;
31308;SDS011;17936;52.446;10.840;2022-08-20T07:05:26;14.18;;;6.70;;
31308;SDS011;17936;52.446;10.840;2022-08-20T07:07:56;7.47;;;5.57;;
31308;SDS011;17936;52.446;10.840;2022-08-20T07:10:23;8.00;;;5.88;;
31308;SDS011;17936;52.446;10.840;2022-08-20T07:12:49;8.23;;;5.80;;
31308;SDS011;17936;52.446;10.840;2022-08-20T07:15:16;7.95;;;5.78;;
31308;SDS011;17936;52.446;10.840;2022-08-20T07:17:47;10.98;;;6.30;;
31308;SDS011;17936;52.446;10.840;2022-08-20T07:20:17;8.65;;;6.40;;
31308;SDS011;17936;52.446;10.840;2022-08-20T07:22:43;11.75;;;6.70;;
31308;SDS011;17936;52.446;10.840;2022-08-20T07:25:09;9.88;;;6.15;;
31308;SDS011;17936;52.446;10.840;2022-08-20T07:27:38;12.45;;;6.70;;
31308;SDS011;17936;52.446;10.840;2022-08-20T07:30:06;8.05;;;5.95;;
31308;SDS011;17936;52.446;10.840;2022-08-20T07:32:53;12.18;;;6.72;;
31308;SDS011;17936;52.446;10.840;2022-08-20T07:35:18;15.20;;;7.30;;
31308;SDS011;17936;52.446;10.840;2022-08-20T07:37:45;11.98;;;7.57;;
31308;SDS011;17936;52.446;10.840;2022-08-20T07:40:15;12.57;;;7.90;;
31308;SDS011;17936;52.446;10.840;2022-08-20T07:42:44;11.73;;;6.95;;
31308;SDS011;17936;52.446;10.840;2022-08-20T07:45:10;12.80;;;8.45;;
31308;SDS011;17936;52.446;10.840;2022-08-20T07:47:41;11.70;;;7.80;;
31308;SDS011;17936;52.446;10.840;2022-08-20T07:50:08;12.50;;;8.50;;
31308;SDS011;17936;52.446;10.840;2022-08-20T07:52:36;14.63;;;8.10;;
31308;SDS011;17936;52.446;10.840;2022-08-20T07:55:02;13.70;;;7.85;;
31308;SDS011;17936;52.446;10.840;2022-08-20T07:57:29;12.05;;;8.00;;
31308;SDS011;17936;52.446;10.840;2022-08-20T07:59:55;14.38;;;7.68;;
31308;SDS011;17936;52.446;10.840;2022-08-20T08:02:23;11.00;;;7.32;;
31308;SDS011;17936;52.446;10.840;2022-08-20T08:04:49;10.45;;;7.25;;
31308;SDS011;17936;52.446;10.840;2022-08-20T08:07:14;9.32;;;6.45;;
31308;SDS011;17936;52.446;10.840;2022-08-20T08:09:40;11.15;;;6.40;;
31308;SDS011;17936;52.446;10.840;2022-08-20T08:12:08;11.13;;;7.35;;
31308;SDS011;17936;52.446;10.840;2022-08-20T08:14:37;12.20;;;7.65;;
31308;SDS011;17936;52.446;10.840;2022-08-20T08:17:04;10.38;;;7.57;;
31308;SDS011;17936;52.446;10.840;2022-08-20T08:19:31;14.30;;;8.50;;
31308;SDS011;17936;52.446;10.840;2022-08-20T08:22:02;11.43;;;8.75;;
31308;SDS011;17936;52.446;10.840;2022-08-20T08:24:34;13.52;;;8.52;;
31308;SDS011;17936;52.446;10.840;2022-08-20T08:27:00;9.30;;;7.43;;
31308;SDS011;17936;52.446;10.840;2022-08-20T08:29:25;11.35;;;7.45;;
31308;SDS011;17936;52.446;10.840;2022-08-20T08:31:51;13.27;;;6.60;;
31308;SDS011;17936;52.446;10.840;2022-08-20T08:34:16;9.13;;;6.50;;
31308;SDS011;17936;52.446;10.840;2022-08-20T08:36:42;9.95;;;6.20;;
31308;SDS011;17936;52.446;10.840;2022-08-20T08:39:08;8.50;;;6.32;;
31308;SDS011;17936;52.446;10.840;2022-08-20T08:41:35;11.57;;;7.53;;
31308;SDS011;17936;52.446;10.840;2022-08-20T08:44:15;12.23;;;8.02;;
31308;SDS011;17936;52.446;10.840;2022-08-20T08:47:10;10.77;;;8.13;;
31308;SDS011;17936;52.446;10.840;2022-08-20T08:49:54;10.18;;;7.65;;
31308;SDS011;17936;52.446;10.840;2022-08-20T08:52:22;11.98;;;8.25;;
31308;SDS011;17936;52.446;10.840;2022-08-20T08:54:53;11.63;;;8.80;;
31308;SDS011;17936;52.446;10.840;2022-08-20T08:57:21;11.98;;;7.95;;
31308;SDS011;17936;52.446;10.840;2022-08-20T08:59:51;9.93;;;7.22;;
31308;SDS011;17936;52.446;10.840;2022-08-20T09:02:21;10.20;;;6.95;;
31308;SDS011;17936;52.446;10.840;2022-08-20T09:04:50;10.60;;;6.43;;
31308;SDS011;17936;52.446;10.840;2022-08-20T09:07:19;9.60;;;6.93;;
31308;SDS011;17936;52.446;10.840;2022-08-20T09:09:45;10.35;;;6.70;;
31308;SDS011;17936;52.446;10.840;2022-08-20T09:12:15;9.30;;;7.05;;
31308;SDS011;17936;52.446;10.840;2022-08-20T09:14:42;8.45;;;6.05;;
31308;SDS011;17936;52.446;10.840;2022-08-20T09:17:10;9.65;;;7.10;;
31308;SDS011;17936;52.446;10.840;2022-08-20T09:19:36;12.80;;;7.30;;
31308;SDS011;17936;52.446;10.840;2022-08-20T09:22:08;8.38;;;6.45;;
31308;SDS011;17936;52.446;10.840;2022-08-20T09:24:35;8.98;;;6.78;;
31308;SDS011;17936;52.446;10.840;2022-08-20T09:27:01;9.15;;;6.43;;
31308;SDS011;17936;52.446;10.840;2022-08-20T09:29:27;7.43;;;5.90;;
31308;SDS011;17936;52.446;10.840;2022-08-20T09:32:03;11.65;;;7.35;;
31308;SDS011;17936;52.446;10.840;2022-08-20T09:34:42;10.20;;;6.95;;
31308;SDS011;17936;52.446;10.840;2022-08-20T09:37:09;11.88;;;7.22;;
31308;SDS011;17936;52.446;10.840;2022-08-20T09:39:35;10.48;;;6.38;;
31308;SDS011;17936;52.446;10.840;2022-08-20T09:42:23;12.85;;;7.72;;
31308;SDS011;17936;52.446;10.840;2022-08-20T09:44:52;11.45;;;7.10;;
31308;SDS011;17936;52.446;10.840;2022-08-20T09:47:18;9.88;;;6.65;;
31308;SDS011;17936;52.446;10.840;2022-08-20T09:49:44;8.30;;;5.80;;
31308;SDS011;17936;52.446;10.840;2022-08-20T09:52:15;10.38;;;6.45;;
31308;SDS011;17936;52.446;10.840;2022-08-20T09:57:20;10.30;;;6.95;;
31308;SDS011;17936;52.446;10.840;2022-08-20T09:59:52;11.73;;;6.93;;
31308;SDS011;17936;52.446;10.840;2022-08-20T10:02:21;9.93;;;6.80;;
31308;SDS011;17936;52.446;10.840;2022-08-20T10:04:47;11.00;;;6.53;;
31308;SDS011;17936;52.446;10.840;2022-08-20T10:07:13;12.43;;;6.25;;
31308;SDS011;17936;52.446;10.840;2022-08-20T10:09:38;8.32;;;5.95;;
31308;SDS011;17936;52.446;10.840;2022-08-20T10:12:04;13.45;;;5.72;;
31308;SDS011;17936;52.446;10.840;2022-08-20T10:14:30;8.13;;;5.43;;
31308;SDS011;17936;52.446;10.840;2022-08-20T10:16:56;8.23;;;5.63;;
31308;SDS011;17936;52.446;10.840;2022-08-20T10:19:23;15.15;;;5.65;;
31308;SDS011;17936;52.446;10.840;2022-08-20T10:21:50;8.35;;;5.13;;
31308;SDS011;17936;52.446;10.840;2022-08-20T10:24:17;8.57;;;5.65;;
31308;SDS011;17936;52.446;10.840;2022-08-20T10:26:43;6.57;;;4.38;;
31308;SDS011;17936;52.446;10.840;2022-08-20T10:29:09;6.90;;;4.65;;
31308;SDS011;17936;52.446;10.840;2022-08-20T10:31:34;15.27;;;4.30;;
31308;SDS011;17936;52.446;10.840;2022-08-20T10:34:00;6.63;;;4.00;;
31308;SDS011;17936;52.446;10.840;2022-08-20T10:36:25;10.52;;;3.95;;
31308;SDS011;17936;52.446;10.840;2022-08-20T10:38:51;6.80;;;4.70;;
31308;SDS011;17936;52.446;10.840;2022-08-20T10:41:16;7.40;;;4.15;;
31308;SDS011;17936;52.446;10.840;2022-08-20T10:43:43;6.75;;;4.70;;
31308;SDS011;17936;52.446;10.840;2022-08-20T10:46:09;7.28;;;4.00;;
31308;SDS011;17936;52.446;10.840;2022-08-20T10:48:35;7.15;;;4.57;;
31308;SDS011;17936;52.446;10.840;2022-08-20T10:51:01;5.20;;;3.53;;
31308;SDS011;17936;52.446;10.840;2022-08-20T10:53:27;5.15;;;3.63;;
31308;SDS011;17936;52.446;10.840;2022-08-20T10:55:53;7.00;;;4.18;;
31308;SDS011;17936;52.446;10.840;2022-08-20T10:58:19;5.03;;;3.58;;
31308;SDS011;17936;52.446;10.840;2022-08-20T11:00:44;7.15;;;4.60;;
31308;SDS011;17936;52.446;10.840;2022-08-20T11:03:11;5.45;;;3.30;;
31308;SDS011;17936;52.446;10.840;2022-08-20T11:05:36;6.32;;;3.90;;
31308;SDS011;17936;52.446;10.840;2022-08-20T11:08:03;9.32;;;4.15;;
31308;SDS011;17936;52.446;10.840;2022-08-20T11:10:30;5.30;;;4.18;;
31308;SDS011;17936;52.446;10.840;2022-08-20T11:12:58;8.80;;;4.60;;
31308;SDS011;17936;52.446;10.840;2022-08-20T11:15:25;6.15;;;3.58;;
31308;SDS011;17936;52.446;10.840;2022-08-20T11:17:51;5.72;;;4.18;;
31308;SDS011;17936;52.446;10.840;2022-08-20T11:20:17;6.45;;;3.92;;
31308;SDS011;17936;52.446;10.840;2022-08-20T11:22:44;5.07;;;4.25;;
31308;SDS011;17936;52.446;10.840;2022-08-20T11:25:10;6.55;;;3.97;;
31308;SDS011;17936;52.446;10.840;2022-08-20T11:27:39;7.63;;;4.15;;
31308;SDS011;17936;52.446;10.840;2022-08-20T11:30:08;7.93;;;4.00;;
31308;SDS011;17936;52.446;10.840;2022-08-20T11:32:37;6.05;;;3.83;;
31308;SDS011;17936;52.446;10.840;2022-08-20T11:35:02;5.57;;;3.70;;
31308;SDS011;17936;52.446;10.840;2022-08-20T11:37:29;5.30;;;3.85;;
31308;SDS011;17936;52.446;10.840;2022-08-20T11:39:54;6.53;;;3.88;;
31308;SDS011;17936;52.446;10.840;2022-08-20T11:42:20;9.88;;;4.43;;
31308;SDS011;17936;52.446;10.840;2022-08-20T11:44:45;7.82;;;3.88;;
31308;SDS011;17936;52.446;10.840;2022-08-20T11:47:18;9.10;;;4.75;;
31308;SDS011;17936;52.446;10.840;2022-08-20T11:49:46;7.97;;;5.25;;
31308;SDS011;17936;52.446;10.840;2022-08-20T11:52:11;6.60;;;4.38;;
31308;SDS011;17936;52.446;10.840;2022-08-20T11:54:37;6.47;;;4.40;;
31308;SDS011;17936;52.446;10.840;2022-08-20T11:57:04;8.02;;;5.18;;
31308;SDS011;17936;52.446;10.840;2022-08-20T11:59:30;6.45;;;4.35;;
31308;SDS011;17936;52.446;10.840;2022-08-20T12:01:55;5.80;;;4.32;;
31308;SDS011;17936;52.446;10.840;2022-08-20T12:04:22;7.88;;;4.32;;
31308;SDS011;17936;52.446;10.840;2022-08-20T12:06:48;5.47;;;4.07;;
31308;SDS011;17936;52.446;10.840;2022-08-20T12:09:14;6.18;;;4.03;;
31308;SDS011;17936;52.446;10.840;2022-08-20T12:11:41;5.75;;;3.92;;
31308;SDS011;17936;52.446;10.840;2022-08-20T12:14:06;5.47;;;3.97;;
31308;SDS011;17936;52.446;10.840;2022-08-20T12:16:32;4.50;;;3.55;;
31308;SDS011;17936;52.446;10.840;2022-08-20T12:18:57;8.60;;;4.35;;
31308;SDS011;17936;52.446;10.840;2022-08-20T12:21:23;4.93;;;3.97;;
31308;SDS011;17936;52.446;10.840;2022-08-20T12:23:48;5.53;;;3.88;;
31308;SDS011;17936;52.446;10.840;2022-08-20T12:26:14;9.52;;;4.63;;
31308;SDS011;17936;52.446;10.840;2022-08-20T12:28:40;6.88;;;4.55;;
31308;SDS011;17936;52.446;10.840;2022-08-20T12:31:06;7.80;;;4.82;;
31308;SDS011;17936;52.446;10.840;2022-08-20T12:33:32;7.30;;;4.93;;
31308;SDS011;17936;52.446;10.840;2022-08-20T12:35:58;7.07;;;4.93;;
31308;SDS011;17936;52.446;10.840;2022-08-20T12:38:23;8.43;;;4.63;;
31308;SDS011;17936;52.446;10.840;2022-08-20T12:40:49;6.47;;;4.50;;
31308;SDS011;17936;52.446;10.840;2022-08-20T12:43:14;6.30;;;5.07;;
31308;SDS011;17936;52.446;10.840;2022-08-20T12:45:40;7.40;;;5.22;;
31308;SDS011;17936;52.446;10.840;2022-08-20T12:48:07;7.00;;;5.18;;
31308;SDS011;17936;52.446;10.840;2022-08-20T12:50:35;8.82;;;4.88;;
31308;SDS011;17936;52.446;10.840;2022-08-20T12:53:02;7.38;;;5.78;;
31308;SDS011;17936;52.446;10.840;2022-08-20T12:55:28;6.93;;;4.63;;
31308;SDS011;17936;52.446;10.840;2022-08-20T12:57:55;2.05;;;1.30;;
31308;SDS011;17936;52.446;10.840;2022-08-20T13:02:58;5.65;;;1.00;;
31308;SDS011;17936;52.446;10.840;2022-08-20T13:05:25;1.63;;;0.90;;
31308;SDS011;17936;52.446;10.840;2022-08-20T13:07:52;1.08;;;0.60;;
31308;SDS011;17936;52.446;10.840;2022-08-20T13:10:19;1.60;;;0.80;;
31308;SDS011;17936;52.446;10.840;2022-08-20T13:12:48;2.55;;;1.00;;
31308;SDS011;17936;52.446;10.840;2022-08-20T13:15:14;3.10;;;0.82;;
31308;SDS011;17936;52.446;10.840;2022-08-20T13:17:40;1.30;;;0.77;;
31308;SDS011;17936;52.446;10.840;2022-08-20T13:20:07;0.98;;;0.55;;
31308;SDS011;17936;52.446;10.840;2022-08-20T13:22:35;1.20;;;0.80;;
31308;SDS011;17936;52.446;10.840;2022-08-20T13:25:01;0.52;;;0.50;;
31308;SDS011;17936;52.446;10.840;2022-08-20T13:27:27;1.55;;;0.50;;
31308;SDS011;17936;52.446;10.840;2022-08-20T13:29:53;0.88;;;0.43;;
31308;SDS011;17936;52.446;10.840;2022-08-20T13:32:22;1.80;;;0.57;;
31308;SDS011;17936;52.446;10.840;2022-08-20T13:34:48;0.77;;;0.50;;
31308;SDS011;17936;52.446;10.840;2022-08-20T13:37:19;0.40;;;0.35;;
31308;SDS011;17936;52.446;10.840;2022-08-20T13:39:49;0.60;;;0.50;;
31308;SDS011;17936;52.446;10.840;2022-08-20T13:42:14;0.45;;;0.45;;
31308;SDS011;17936;52.446;10.840;2022-08-20T13:44:40;0.98;;;0.50;;
31308;SDS011;17936;52.446;10.840;2022-08-20T13:47:39;0.93;;;0.50;;
31308;SDS011;17936;52.446;10.840;2022-08-20T13:50:00;0.98;;;0.50;;
31308;SDS011;17936;52.446;10.840;2022-08-20T13:52:33;1.70;;;0.40;;
31308;SDS011;17936;52.446;10.840;2022-08-20T13:55:00;0.70;;;0.52;;
31308;SDS011;17936;52.446;10.840;2022-08-20T13:57:26;0.68;;;0.52;;
31308;SDS011;17936;52.446;10.840;2022-08-20T13:59:53;1.23;;;0.52;;
31308;SDS011;17936;52.446;10.840;2022-08-20T14:02:20;0.57;;;0.50;;
31308;SDS011;17936;52.446;10.840;2022-08-20T14:04:47;1.17;;;0.40;;
31308;SDS011;17936;52.446;10.840;2022-08-20T14:09:53;0.57;;;0.50;;
31308;SDS011;17936;52.446;10.840;2022-08-20T14:12:21;0.40;;;0.40;;
31308;SDS011;17936;52.446;10.840;2022-08-20T14:14:47;0.45;;;0.25;;
31308;SDS011;17936;52.446;10.840;2022-08-20T14:17:21;0.65;;;0.35;;
31308;SDS011;17936;52.446;10.840;2022-08-20T14:19:54;1.30;;;0.35;;
31308;SDS011;17936;52.446;10.840;2022-08-20T14:22:23;0.63;;;0.47;;
31308;SDS011;17936;52.446;10.840;2022-08-20T14:24:49;0.40;;;0.30;;
31308;SDS011;17936;52.446;10.840;2022-08-20T14:27:15;0.25;;;0.22;;
31308;SDS011;17936;52.446;10.840;2022-08-20T14:29:43;0.93;;;0.40;;
31308;SDS011;17936;52.446;10.840;2022-08-20T14:32:10;1.73;;;0.70;;
31308;SDS011;17936;52.446;10.840;2022-08-20T14:34:36;1.17;;;0.60;;